sensor_id;sensor_type;location;lat;lon;timestamp;temperature;humidity
67870;DHT22;54673;52.262;6.830;2022-12-07T00:01:15;16.30;54.10
67870;DHT22;54673;52.262;6.830;2022-12-07T00:03:42;16.30;54.10
67870;DHT22;54673;52.262;6.830;2022-12-07T00:06:10;16.30;54.20
67870;DHT22;54673;52.262;6.830;2022-12-07T00:08:36;16.20;54.20
67870;DHT22;54673;52.262;6.830;2022-12-07T00:11:07;16.20;54.20
67870;DHT22;54673;52.262;6.830;2022-12-07T00:13:34;16.20;54.20
67870;DHT22;54673;52.262;6.830;2022-12-07T00:16:05;16.20;54.30
67870;DHT22;54673;52.262;6.830;2022-12-07T00:18:31;16.20;54.30
67870;DHT22;54673;52.262;6.830;2022-12-07T00:21:01;16.20;54.30
67870;DHT22;54673;52.262;6.830;2022-12-07T00:23:27;16.20;54.40
67870;DHT22;54673;52.262;6.830;2022-12-07T00:25:53;16.20;55.30
67870;DHT22;54673;52.262;6.830;2022-12-07T00:28:18;16.20;54.50
67870;DHT22;54673;52.262;6.830;2022-12-07T00:30:44;16.10;54.50
67870;DHT22;54673;52.262;6.830;2022-12-07T00:33:09;16.10;54.50
67870;DHT22;54673;52.262;6.830;2022-12-07T00:35:35;16.10;54.50
67870;DHT22;54673;52.262;6.830;2022-12-07T00:38:00;16.10;54.60
67870;DHT22;54673;52.262;6.830;2022-12-07T00:40:26;16.10;54.60
67870;DHT22;54673;52.262;6.830;2022-12-07T00:42:51;16.10;54.60
67870;DHT22;54673;52.262;6.830;2022-12-07T00:45:17;16.10;54.60
67870;DHT22;54673;52.262;6.830;2022-12-07T00:47:43;16.00;54.60
67870;DHT22;54673;52.262;6.830;2022-12-07T00:50:08;16.00;54.60
67870;DHT22;54673;52.262;6.830;2022-12-07T00:52:34;16.00;54.60
67870;DHT22;54673;52.262;6.830;2022-12-07T00:55:00;16.00;54.60
67870;DHT22;54673;52.262;6.830;2022-12-07T00:57:25;16.00;54.70
67870;DHT22;54673;52.262;6.830;2022-12-07T00:59:51;16.00;54.70
67870;DHT22;54673;52.262;6.830;2022-12-07T01:02:20;16.00;54.70
67870;DHT22;54673;52.262;6.830;2022-12-07T01:04:46;16.00;54.70
67870;DHT22;54673;52.262;6.830;2022-12-07T01:07:12;15.90;54.60
67870;DHT22;54673;52.262;6.830;2022-12-07T01:09:37;15.90;54.70
67870;DHT22;54673;52.262;6.830;2022-12-07T01:12:03;17.10;55.30
67870;DHT22;54673;52.262;6.830;2022-12-07T01:14:28;15.90;54.70
67870;DHT22;54673;52.262;6.830;2022-12-07T01:16:54;15.90;54.70
67870;DHT22;54673;52.262;6.830;2022-12-07T01:19:20;15.90;54.70
67870;DHT22;54673;52.262;6.830;2022-12-07T01:21:45;15.90;54.70
67870;DHT22;54673;52.262;6.830;2022-12-07T01:24:11;15.90;54.70
67870;DHT22;54673;52.262;6.830;2022-12-07T01:26:37;15.90;54.80
67870;DHT22;54673;52.262;6.830;2022-12-07T01:29:03;15.80;54.70
67870;DHT22;54673;52.262;6.830;2022-12-07T01:31:29;15.80;54.70
67870;DHT22;54673;52.262;6.830;2022-12-07T01:33:56;15.80;54.80
67870;DHT22;54673;52.262;6.830;2022-12-07T01:36:28;15.80;54.70
67870;DHT22;54673;52.262;6.830;2022-12-07T01:38:57;15.80;54.70
67870;DHT22;54673;52.262;6.830;2022-12-07T01:41:24;15.80;54.80
67870;DHT22;54673;52.262;6.830;2022-12-07T01:44:22;15.80;54.70
67870;DHT22;54673;52.262;6.830;2022-12-07T01:49:28;15.80;54.80
67870;DHT22;54673;52.262;6.830;2022-12-07T01:52:01;15.80;54.70
67870;DHT22;54673;52.262;6.830;2022-12-07T01:54:30;15.80;54.70
67870;DHT22;54673;52.262;6.830;2022-12-07T01:56:57;15.70;54.70
67870;DHT22;54673;52.262;6.830;2022-12-07T01:59:24;15.70;54.70
67870;DHT22;54673;52.262;6.830;2022-12-07T02:01:52;15.70;54.70
67870;DHT22;54673;52.262;6.830;2022-12-07T02:04:19;15.70;54.70
67870;DHT22;54673;52.262;6.830;2022-12-07T02:06:45;15.70;54.80
67870;DHT22;54673;52.262;6.830;2022-12-07T02:09:12;15.70;54.80
67870;DHT22;54673;52.262;6.830;2022-12-07T02:11:38;15.70;54.70
67870;DHT22;54673;52.262;6.830;2022-12-07T02:14:04;15.70;54.70
67870;DHT22;54673;52.262;6.830;2022-12-07T02:28:02;15.70;54.70
67870;DHT22;54673;52.262;6.830;2022-12-07T02:30:32;15.60;54.60
67870;DHT22;54673;52.262;6.830;2022-12-07T02:33:10;15.60;54.60
67870;DHT22;54673;52.262;6.830;2022-12-07T02:38:35;15.60;54.60
67870;DHT22;54673;52.262;6.830;2022-12-07T02:41:22;15.60;54.70
67870;DHT22;54673;52.262;6.830;2022-12-07T02:43:56;15.60;54.60
67870;DHT22;54673;52.262;6.830;2022-12-07T02:46:27;15.60;54.60
67870;DHT22;54673;52.262;6.830;2022-12-07T02:48:55;15.60;54.60
67870;DHT22;54673;52.262;6.830;2022-12-07T02:51:21;15.60;54.60
67870;DHT22;54673;52.262;6.830;2022-12-07T02:53:47;15.50;54.60
67870;DHT22;54673;52.262;6.830;2022-12-07T03:01:44;15.50;54.60
67870;DHT22;54673;52.262;6.830;2022-12-07T03:12:22;15.50;54.60
67870;DHT22;54673;52.262;6.830;2022-12-07T03:14:57;15.50;54.60
67870;DHT22;54673;52.262;6.830;2022-12-07T03:17:28;15.50;54.50
67870;DHT22;54673;52.262;6.830;2022-12-07T03:19:58;15.20;54.40
67870;DHT22;54673;52.262;6.830;2022-12-07T03:22:29;15.50;54.60
67870;DHT22;54673;52.262;6.830;2022-12-07T03:25:03;15.50;54.60
67870;DHT22;54673;52.262;6.830;2022-12-07T03:27:37;15.50;54.60
67870;DHT22;54673;52.262;6.830;2022-12-07T03:30:07;15.50;54.60
67870;DHT22;54673;52.262;6.830;2022-12-07T03:32:58;15.50;54.50
67870;DHT22;54673;52.262;6.830;2022-12-07T03:35:34;15.40;54.50
67870;DHT22;54673;52.262;6.830;2022-12-07T03:40:39;15.50;54.50
67870;DHT22;54673;52.262;6.830;2022-12-07T03:43:07;15.40;54.40
67870;DHT22;54673;52.262;6.830;2022-12-07T03:45:40;15.40;54.40
67870;DHT22;54673;52.262;6.830;2022-12-07T03:51:04;15.40;54.40
67870;DHT22;54673;52.262;6.830;2022-12-07T03:53:43;15.40;54.40
67870;DHT22;54673;52.262;6.830;2022-12-07T03:56:11;15.40;54.40
67870;DHT22;54673;52.262;6.830;2022-12-07T03:58:38;15.40;54.40
67870;DHT22;54673;52.262;6.830;2022-12-07T04:01:04;15.40;54.40
67870;DHT22;54673;52.262;6.830;2022-12-07T04:03:29;15.40;54.50
67870;DHT22;54673;52.262;6.830;2022-12-07T04:05:55;15.40;54.40
67870;DHT22;54673;52.262;6.830;2022-12-07T04:08:20;15.30;54.30
67870;DHT22;54673;52.262;6.830;2022-12-07T04:10:46;15.30;54.40
67870;DHT22;54673;52.262;6.830;2022-12-07T04:13:11;15.30;54.40
67870;DHT22;54673;52.262;6.830;2022-12-07T04:15:37;15.30;54.30
67870;DHT22;54673;52.262;6.830;2022-12-07T04:18:03;15.30;54.30
67870;DHT22;54673;52.262;6.830;2022-12-07T04:20:28;15.30;54.30
67870;DHT22;54673;52.262;6.830;2022-12-07T04:22:54;15.30;54.30
67870;DHT22;54673;52.262;6.830;2022-12-07T04:25:20;15.30;54.30
67870;DHT22;54673;52.262;6.830;2022-12-07T04:27:45;15.30;54.30
67870;DHT22;54673;52.262;6.830;2022-12-07T04:30:11;15.30;54.30
67870;DHT22;54673;52.262;6.830;2022-12-07T04:32:37;15.30;54.30
67870;DHT22;54673;52.262;6.830;2022-12-07T04:35:03;15.30;54.20
67870;DHT22;54673;52.262;6.830;2022-12-07T04:37:29;15.30;54.30
67870;DHT22;54673;52.262;6.830;2022-12-07T04:39:54;15.30;54.20
67870;DHT22;54673;52.262;6.830;2022-12-07T04:42:20;15.30;54.20
67870;DHT22;54673;52.262;6.830;2022-12-07T04:44:45;15.30;54.30
67870;DHT22;54673;52.262;6.830;2022-12-07T04:47:11;15.30;54.30
67870;DHT22;54673;52.262;6.830;2022-12-07T04:49:37;15.30;54.30
67870;DHT22;54673;52.262;6.830;2022-12-07T04:52:02;15.30;54.30
67870;DHT22;54673;52.262;6.830;2022-12-07T04:54:28;15.30;54.30
67870;DHT22;54673;52.262;6.830;2022-12-07T04:56:53;15.20;54.20
67870;DHT22;54673;52.262;6.830;2022-12-07T04:59:19;15.20;54.20
67870;DHT22;54673;52.262;6.830;2022-12-07T05:01:44;15.30;54.20
67870;DHT22;54673;52.262;6.830;2022-12-07T05:04:10;15.20;54.20
67870;DHT22;54673;52.262;6.830;2022-12-07T05:06:36;15.20;54.20
67870;DHT22;54673;52.262;6.830;2022-12-07T05:09:02;15.70;54.50
67870;DHT22;54673;52.262;6.830;2022-12-07T05:11:28;15.20;54.20
67870;DHT22;54673;52.262;6.830;2022-12-07T05:14:12;15.30;54.30
67870;DHT22;54673;52.262;6.830;2022-12-07T05:16:38;15.20;55.10
67870;DHT22;54673;52.262;6.830;2022-12-07T05:19:05;15.20;54.20
67870;DHT22;54673;52.262;6.830;2022-12-07T05:21:30;15.20;54.20
67870;DHT22;54673;52.262;6.830;2022-12-07T05:23:56;15.20;54.10
67870;DHT22;54673;52.262;6.830;2022-12-07T05:26:22;15.20;54.20
67870;DHT22;54673;52.262;6.830;2022-12-07T05:28:52;15.20;54.20
67870;DHT22;54673;52.262;6.830;2022-12-07T05:31:18;15.20;54.10
67870;DHT22;54673;52.262;6.830;2022-12-07T05:33:43;15.10;54.10
67870;DHT22;54673;52.262;6.830;2022-12-07T05:36:09;15.20;54.10
67870;DHT22;54673;52.262;6.830;2022-12-07T05:38:34;15.10;54.00
67870;DHT22;54673;52.262;6.830;2022-12-07T05:41:01;16.40;54.70
67870;DHT22;54673;52.262;6.830;2022-12-07T05:43:28;15.10;54.00
67870;DHT22;54673;52.262;6.830;2022-12-07T05:45:53;15.20;54.10
67870;DHT22;54673;52.262;6.830;2022-12-07T05:48:19;15.10;54.10
67870;DHT22;54673;52.262;6.830;2022-12-07T05:50:47;15.20;54.10
67870;DHT22;54673;52.262;6.830;2022-12-07T05:53:13;15.20;54.10
67870;DHT22;54673;52.262;6.830;2022-12-07T05:55:39;15.10;54.00
67870;DHT22;54673;52.262;6.830;2022-12-07T05:58:04;15.10;53.90
67870;DHT22;54673;52.262;6.830;2022-12-07T06:00:49;15.10;53.90
67870;DHT22;54673;52.262;6.830;2022-12-07T06:03:14;15.10;53.90
67870;DHT22;54673;52.262;6.830;2022-12-07T06:05:40;15.10;53.90
67870;DHT22;54673;52.262;6.830;2022-12-07T06:08:06;15.10;53.90
67870;DHT22;54673;52.262;6.830;2022-12-07T06:10:32;15.10;53.90
67870;DHT22;54673;52.262;6.830;2022-12-07T06:12:57;15.10;53.90
67870;DHT22;54673;52.262;6.830;2022-12-07T06:15:23;15.10;53.90
67870;DHT22;54673;52.262;6.830;2022-12-07T06:17:48;15.10;53.90
67870;DHT22;54673;52.262;6.830;2022-12-07T06:20:14;15.10;53.90
67870;DHT22;54673;52.262;6.830;2022-12-07T06:22:40;15.10;53.90
67870;DHT22;54673;52.262;6.830;2022-12-07T06:25:06;15.10;53.90
67870;DHT22;54673;52.262;6.830;2022-12-07T06:27:32;15.10;53.90
67870;DHT22;54673;52.262;6.830;2022-12-07T06:29:58;15.10;53.90
67870;DHT22;54673;52.262;6.830;2022-12-07T06:32:24;15.00;53.80
67870;DHT22;54673;52.262;6.830;2022-12-07T06:34:50;15.10;53.90
67870;DHT22;54673;52.262;6.830;2022-12-07T06:37:16;15.10;53.90
67870;DHT22;54673;52.262;6.830;2022-12-07T06:39:42;15.00;53.80
67870;DHT22;54673;52.262;6.830;2022-12-07T06:42:07;15.00;53.80
67870;DHT22;54673;52.262;6.830;2022-12-07T06:44:33;15.00;53.80
67870;DHT22;54673;52.262;6.830;2022-12-07T06:46:58;15.00;54.60
67870;DHT22;54673;52.262;6.830;2022-12-07T06:49:24;15.10;53.80
67870;DHT22;54673;52.262;6.830;2022-12-07T06:51:49;15.00;53.70
67870;DHT22;54673;52.262;6.830;2022-12-07T06:54:15;15.00;53.70
67870;DHT22;54673;52.262;6.830;2022-12-07T06:56:41;15.00;53.70
67870;DHT22;54673;52.262;6.830;2022-12-07T06:59:07;15.00;53.70
67870;DHT22;54673;52.262;6.830;2022-12-07T07:01:34;15.00;53.70
67870;DHT22;54673;52.262;6.830;2022-12-07T07:04:00;15.00;53.70
67870;DHT22;54673;52.262;6.830;2022-12-07T07:06:26;15.00;53.70
67870;DHT22;54673;52.262;6.830;2022-12-07T07:08:52;15.00;53.70
67870;DHT22;54673;52.262;6.830;2022-12-07T07:11:17;15.00;53.70
67870;DHT22;54673;52.262;6.830;2022-12-07T07:13:44;15.00;53.70
67870;DHT22;54673;52.262;6.830;2022-12-07T07:16:10;15.00;53.70
67870;DHT22;54673;52.262;6.830;2022-12-07T07:18:36;15.00;53.60
67870;DHT22;54673;52.262;6.830;2022-12-07T07:21:02;15.00;53.60
67870;DHT22;54673;52.262;6.830;2022-12-07T07:23:28;15.00;53.60
67870;DHT22;54673;52.262;6.830;2022-12-07T07:25:54;15.00;53.70
67870;DHT22;54673;52.262;6.830;2022-12-07T07:28:19;15.00;53.60
67870;DHT22;54673;52.262;6.830;2022-12-07T07:30:45;15.00;53.70
67870;DHT22;54673;52.262;6.830;2022-12-07T07:33:11;15.00;53.60
67870;DHT22;54673;52.262;6.830;2022-12-07T07:35:37;15.00;53.60
67870;DHT22;54673;52.262;6.830;2022-12-07T07:38:03;15.00;53.50
67870;DHT22;54673;52.262;6.830;2022-12-07T07:40:29;14.90;53.50
67870;DHT22;54673;52.262;6.830;2022-12-07T07:42:55;14.90;53.60
67870;DHT22;54673;52.262;6.830;2022-12-07T07:45:22;14.90;53.60
67870;DHT22;54673;52.262;6.830;2022-12-07T07:47:48;14.90;53.60
67870;DHT22;54673;52.262;6.830;2022-12-07T07:50:14;14.90;53.60
67870;DHT22;54673;52.262;6.830;2022-12-07T07:52:40;14.90;53.70
67870;DHT22;54673;52.262;6.830;2022-12-07T07:55:06;14.90;53.70
67870;DHT22;54673;52.262;6.830;2022-12-07T07:57:34;14.90;53.80
67870;DHT22;54673;52.262;6.830;2022-12-07T08:00:00;15.00;53.80
67870;DHT22;54673;52.262;6.830;2022-12-07T08:02:26;15.00;53.90
67870;DHT22;54673;52.262;6.830;2022-12-07T08:04:54;14.90;53.80
67870;DHT22;54673;52.262;6.830;2022-12-07T08:07:20;15.00;53.90
67870;DHT22;54673;52.262;6.830;2022-12-07T08:09:45;15.00;53.90
67870;DHT22;54673;52.262;6.830;2022-12-07T08:12:11;14.90;53.70
67870;DHT22;54673;52.262;6.830;2022-12-07T08:14:37;15.00;53.80
67870;DHT22;54673;52.262;6.830;2022-12-07T08:17:02;15.00;53.80
67870;DHT22;54673;52.262;6.830;2022-12-07T08:19:28;15.00;53.80
67870;DHT22;54673;52.262;6.830;2022-12-07T08:21:53;15.00;53.70
67870;DHT22;54673;52.262;6.830;2022-12-07T08:24:21;15.00;53.90
67870;DHT22;54673;52.262;6.830;2022-12-07T08:26:47;15.00;53.90
67870;DHT22;54673;52.262;6.830;2022-12-07T08:29:13;15.10;54.00
67870;DHT22;54673;52.262;6.830;2022-12-07T08:31:39;15.00;54.00
67870;DHT22;54673;52.262;6.830;2022-12-07T08:34:05;15.10;54.00
67870;DHT22;54673;52.262;6.830;2022-12-07T08:36:30;15.10;54.10
67870;DHT22;54673;52.262;6.830;2022-12-07T08:38:56;15.10;54.20
67870;DHT22;54673;52.262;6.830;2022-12-07T08:41:21;15.10;54.20
67870;DHT22;54673;52.262;6.830;2022-12-07T08:43:47;15.10;54.20
67870;DHT22;54673;52.262;6.830;2022-12-07T08:48:45;15.00;54.20
67870;DHT22;54673;52.262;6.830;2022-12-07T08:51:12;15.10;54.10
67870;DHT22;54673;52.262;6.830;2022-12-07T08:53:38;15.10;54.10
67870;DHT22;54673;52.262;6.830;2022-12-07T08:56:06;15.10;54.10
67870;DHT22;54673;52.262;6.830;2022-12-07T08:58:33;15.10;54.10
67870;DHT22;54673;52.262;6.830;2022-12-07T09:00:59;15.10;54.00
67870;DHT22;54673;52.262;6.830;2022-12-07T09:03:28;15.10;54.00
67870;DHT22;54673;52.262;6.830;2022-12-07T09:05:54;15.10;54.00
67870;DHT22;54673;52.262;6.830;2022-12-07T09:08:21;15.10;53.90
67870;DHT22;54673;52.262;6.830;2022-12-07T09:10:47;15.10;53.90
67870;DHT22;54673;52.262;6.830;2022-12-07T09:13:13;15.10;53.80
67870;DHT22;54673;52.262;6.830;2022-12-07T09:15:38;15.10;53.90
67870;DHT22;54673;52.262;6.830;2022-12-07T09:18:04;15.10;53.90
67870;DHT22;54673;52.262;6.830;2022-12-07T09:20:30;15.10;53.90
67870;DHT22;54673;52.262;6.830;2022-12-07T09:22:56;15.10;53.90
67870;DHT22;54673;52.262;6.830;2022-12-07T09:25:21;15.10;53.90
67870;DHT22;54673;52.262;6.830;2022-12-07T09:27:47;15.10;54.80
67870;DHT22;54673;52.262;6.830;2022-12-07T09:30:13;15.20;54.00
67870;DHT22;54673;52.262;6.830;2022-12-07T09:32:38;15.20;53.90
67870;DHT22;54673;52.262;6.830;2022-12-07T09:35:04;15.20;54.00
67870;DHT22;54673;52.262;6.830;2022-12-07T09:37:30;15.20;54.00
67870;DHT22;54673;52.262;6.830;2022-12-07T09:40:00;15.10;54.80
67870;DHT22;54673;52.262;6.830;2022-12-07T09:42:30;15.20;53.90
67870;DHT22;54673;52.262;6.830;2022-12-07T09:44:58;15.10;53.80
67870;DHT22;54673;52.262;6.830;2022-12-07T09:47:25;15.20;53.90
67870;DHT22;54673;52.262;6.830;2022-12-07T09:49:51;15.20;53.90
67870;DHT22;54673;52.262;6.830;2022-12-07T09:52:25;15.20;53.90
67870;DHT22;54673;52.262;6.830;2022-12-07T09:54:52;15.20;53.90
67870;DHT22;54673;52.262;6.830;2022-12-07T09:57:24;15.20;53.90
67870;DHT22;54673;52.262;6.830;2022-12-07T09:59:50;15.20;53.90
67870;DHT22;54673;52.262;6.830;2022-12-07T10:02:38;15.20;53.80
67870;DHT22;54673;52.262;6.830;2022-12-07T10:05:06;15.20;53.80
67870;DHT22;54673;52.262;6.830;2022-12-07T10:07:32;15.20;53.90
67870;DHT22;54673;52.262;6.830;2022-12-07T10:09:58;15.20;53.90
67870;DHT22;54673;52.262;6.830;2022-12-07T10:12:23;15.10;53.80
67870;DHT22;54673;52.262;6.830;2022-12-07T10:15:03;15.10;53.90
67870;DHT22;54673;52.262;6.830;2022-12-07T10:17:35;15.20;53.90
67870;DHT22;54673;52.262;6.830;2022-12-07T10:20:25;15.20;53.90
67870;DHT22;54673;52.262;6.830;2022-12-07T10:25:27;15.20;53.90
67870;DHT22;54673;52.262;6.830;2022-12-07T10:30:33;15.20;53.90
67870;DHT22;54673;52.262;6.830;2022-12-07T10:32:59;15.10;53.90
67870;DHT22;54673;52.262;6.830;2022-12-07T10:35:29;15.10;53.90
67870;DHT22;54673;52.262;6.830;2022-12-07T10:37:57;15.10;53.80
67870;DHT22;54673;52.262;6.830;2022-12-07T10:40:27;15.10;53.80
67870;DHT22;54673;52.262;6.830;2022-12-07T10:43:24;15.10;53.80
67870;DHT22;54673;52.262;6.830;2022-12-07T10:51:38;15.10;53.70
67870;DHT22;54673;52.262;6.830;2022-12-07T10:54:17;15.20;53.80
67870;DHT22;54673;52.262;6.830;2022-12-07T10:57:04;15.20;53.80
67870;DHT22;54673;52.262;6.830;2022-12-07T10:59:53;15.20;53.80
67870;DHT22;54673;52.262;6.830;2022-12-07T11:05:38;15.20;53.80
67870;DHT22;54673;52.262;6.830;2022-12-07T11:08:36;15.20;53.80
67870;DHT22;54673;52.262;6.830;2022-12-07T11:11:14;15.10;53.70
67870;DHT22;54673;52.262;6.830;2022-12-07T11:13:47;15.10;53.70
67870;DHT22;54673;52.262;6.830;2022-12-07T11:19:32;15.10;53.70
67870;DHT22;54673;52.262;6.830;2022-12-07T11:22:04;15.10;53.70
67870;DHT22;54673;52.262;6.830;2022-12-07T11:24:39;15.10;53.70
67870;DHT22;54673;52.262;6.830;2022-12-07T11:30:02;15.10;53.60
67870;DHT22;54673;52.262;6.830;2022-12-07T11:32:44;15.10;53.60
67870;DHT22;54673;52.262;6.830;2022-12-07T11:37:40;15.10;53.50
67870;DHT22;54673;52.262;6.830;2022-12-07T11:40:28;15.10;53.60
67870;DHT22;54673;52.262;6.830;2022-12-07T11:42:59;15.10;53.50
67870;DHT22;54673;52.262;6.830;2022-12-07T11:45:29;15.10;53.50
67870;DHT22;54673;52.262;6.830;2022-12-07T11:50:58;15.10;53.50
67870;DHT22;54673;52.262;6.830;2022-12-07T11:53:39;15.20;53.50
67870;DHT22;54673;52.262;6.830;2022-12-07T11:56:17;15.10;53.50
67870;DHT22;54673;52.262;6.830;2022-12-07T12:06:12;15.10;53.40
67870;DHT22;54673;52.262;6.830;2022-12-07T12:08:48;15.20;53.50
67870;DHT22;54673;52.262;6.830;2022-12-07T12:11:26;15.20;53.50
67870;DHT22;54673;52.262;6.830;2022-12-07T12:23:34;15.20;53.40
67870;DHT22;54673;52.262;6.830;2022-12-07T12:25:47;15.20;53.40
67870;DHT22;54673;52.262;6.830;2022-12-07T12:28:29;15.20;53.40
67870;DHT22;54673;52.262;6.830;2022-12-07T12:31:32;15.20;53.50
67870;DHT22;54673;52.262;6.830;2022-12-07T12:34:02;15.20;53.50
67870;DHT22;54673;52.262;6.830;2022-12-07T12:51:50;15.20;53.50
67870;DHT22;54673;52.262;6.830;2022-12-07T12:54:28;15.20;53.50
67870;DHT22;54673;52.262;6.830;2022-12-07T12:59:36;15.20;53.50
67870;DHT22;54673;52.262;6.830;2022-12-07T13:02:22;15.20;53.50
67870;DHT22;54673;52.262;6.830;2022-12-07T13:04:56;15.20;53.50
67870;DHT22;54673;52.262;6.830;2022-12-07T13:15:46;15.20;53.50
67870;DHT22;54673;52.262;6.830;2022-12-07T13:29:15;15.30;54.20
67870;DHT22;54673;52.262;6.830;2022-12-07T13:34:39;15.40;54.30
67870;DHT22;54673;52.262;6.830;2022-12-07T13:37:09;15.50;54.30
67870;DHT22;54673;52.262;6.830;2022-12-07T13:39:48;15.60;54.30
67870;DHT22;54673;52.262;6.830;2022-12-07T13:42:26;15.60;54.20
67870;DHT22;54673;52.262;6.830;2022-12-07T13:44:53;16.00;54.30
67870;DHT22;54673;52.262;6.830;2022-12-07T13:50:00;15.90;53.90
67870;DHT22;54673;52.262;6.830;2022-12-07T13:52:30;15.90;53.80
67870;DHT22;54673;52.262;6.830;2022-12-07T13:55:14;16.00;53.70
67870;DHT22;54673;52.262;6.830;2022-12-07T13:57:40;16.10;53.60
67870;DHT22;54673;52.262;6.830;2022-12-07T14:00:19;16.10;53.50
67870;DHT22;54673;52.262;6.830;2022-12-07T14:05:32;17.10;53.80
67870;DHT22;54673;52.262;6.830;2022-12-07T14:10:41;16.40;53.10
67870;DHT22;54673;52.262;6.830;2022-12-07T14:13:56;16.50;53.00
67870;DHT22;54673;52.262;6.830;2022-12-07T14:16:41;16.50;52.90
67870;DHT22;54673;52.262;6.830;2022-12-07T14:22:23;16.60;52.80
67870;DHT22;54673;52.262;6.830;2022-12-07T14:24:49;16.70;52.60
67870;DHT22;54673;52.262;6.830;2022-12-07T14:27:23;16.70;52.50
67870;DHT22;54673;52.262;6.830;2022-12-07T14:29:51;16.80;52.40
67870;DHT22;54673;52.262;6.830;2022-12-07T14:32:21;16.80;52.30
67870;DHT22;54673;52.262;6.830;2022-12-07T14:35:01;16.90;52.20
67870;DHT22;54673;52.262;6.830;2022-12-07T14:37:28;16.90;52.00
67870;DHT22;54673;52.262;6.830;2022-12-07T14:39:55;17.00;52.00
67870;DHT22;54673;52.262;6.830;2022-12-07T14:42:24;17.00;52.00
67870;DHT22;54673;52.262;6.830;2022-12-07T14:44:51;17.00;51.90
67870;DHT22;54673;52.262;6.830;2022-12-07T14:47:17;17.10;51.80
67870;DHT22;54673;52.262;6.830;2022-12-07T14:49:42;17.10;51.70
67870;DHT22;54673;52.262;6.830;2022-12-07T14:52:15;17.10;51.60
67870;DHT22;54673;52.262;6.830;2022-12-07T14:54:42;17.20;51.50
67870;DHT22;54673;52.262;6.830;2022-12-07T14:57:09;17.20;51.40
67870;DHT22;54673;52.262;6.830;2022-12-07T14:59:36;17.20;51.50
67870;DHT22;54673;52.262;6.830;2022-12-07T15:02:01;17.30;51.50
67870;DHT22;54673;52.262;6.830;2022-12-07T15:04:27;17.30;51.30
67870;DHT22;54673;52.262;6.830;2022-12-07T15:07:01;17.30;51.30
67870;DHT22;54673;52.262;6.830;2022-12-07T15:09:27;17.30;51.10
67870;DHT22;54673;52.262;6.830;2022-12-07T15:11:52;17.20;50.80
67870;DHT22;54673;52.262;6.830;2022-12-07T15:14:18;17.20;50.80
67870;DHT22;54673;52.262;6.830;2022-12-07T15:16:44;17.10;50.70
67870;DHT22;54673;52.262;6.830;2022-12-07T15:21:40;17.00;50.70
67870;DHT22;54673;52.262;6.830;2022-12-07T15:24:11;16.90;50.70
67870;DHT22;54673;52.262;6.830;2022-12-07T15:26:37;16.80;50.70
67870;DHT22;54673;52.262;6.830;2022-12-07T15:29:03;16.80;50.80
67870;DHT22;54673;52.262;6.830;2022-12-07T15:31:29;16.70;50.80
67870;DHT22;54673;52.262;6.830;2022-12-07T15:33:54;16.70;50.90
67870;DHT22;54673;52.262;6.830;2022-12-07T15:36:23;16.60;50.90
67870;DHT22;54673;52.262;6.830;2022-12-07T15:38:49;16.60;51.20
67870;DHT22;54673;52.262;6.830;2022-12-07T15:41:15;16.60;51.50
67870;DHT22;54673;52.262;6.830;2022-12-07T15:43:41;16.60;52.60
67870;DHT22;54673;52.262;6.830;2022-12-07T15:46:33;16.70;52.20
67870;DHT22;54673;52.262;6.830;2022-12-07T15:48:59;16.80;51.90
67870;DHT22;54673;52.262;6.830;2022-12-07T15:51:25;16.90;52.00
67870;DHT22;54673;52.262;6.830;2022-12-07T15:53:52;16.90;51.80
67870;DHT22;54673;52.262;6.830;2022-12-07T15:56:17;17.00;51.80
67870;DHT22;54673;52.262;6.830;2022-12-07T15:58:43;17.10;51.80
67870;DHT22;54673;52.262;6.830;2022-12-07T16:01:13;17.00;51.60
67870;DHT22;54673;52.262;6.830;2022-12-07T16:03:39;17.10;51.70
67870;DHT22;54673;52.262;6.830;2022-12-07T16:06:05;17.10;51.80
67870;DHT22;54673;52.262;6.830;2022-12-07T16:08:31;17.20;51.80
67870;DHT22;54673;52.262;6.830;2022-12-07T16:10:57;17.20;51.70
67870;DHT22;54673;52.262;6.830;2022-12-07T16:13:22;17.30;51.60
67870;DHT22;54673;52.262;6.830;2022-12-07T16:15:48;17.30;51.60
67870;DHT22;54673;52.262;6.830;2022-12-07T16:18:13;17.40;51.40
67870;DHT22;54673;52.262;6.830;2022-12-07T16:20:39;17.40;51.50
67870;DHT22;54673;52.262;6.830;2022-12-07T16:23:06;17.40;51.40
67870;DHT22;54673;52.262;6.830;2022-12-07T16:25:32;18.20;52.60
67870;DHT22;54673;52.262;6.830;2022-12-07T16:27:58;17.50;52.00
67870;DHT22;54673;52.262;6.830;2022-12-07T16:30:24;17.60;51.20
67870;DHT22;54673;52.262;6.830;2022-12-07T16:32:50;17.60;51.50
67870;DHT22;54673;52.262;6.830;2022-12-07T16:35:16;17.60;51.10
67870;DHT22;54673;52.262;6.830;2022-12-07T16:37:42;17.60;50.80
67870;DHT22;54673;52.262;6.830;2022-12-07T16:40:08;17.70;50.90
67870;DHT22;54673;52.262;6.830;2022-12-07T16:42:35;17.70;50.90
67870;DHT22;54673;52.262;6.830;2022-12-07T16:45:02;17.70;50.80
67870;DHT22;54673;52.262;6.830;2022-12-07T16:47:28;17.70;50.70
67870;DHT22;54673;52.262;6.830;2022-12-07T16:49:53;17.80;50.60
67870;DHT22;54673;52.262;6.830;2022-12-07T16:52:19;17.80;50.60
67870;DHT22;54673;52.262;6.830;2022-12-07T16:54:46;17.80;50.60
67870;DHT22;54673;52.262;6.830;2022-12-07T16:57:11;17.90;50.50
67870;DHT22;54673;52.262;6.830;2022-12-07T16:59:37;17.90;50.50
67870;DHT22;54673;52.262;6.830;2022-12-07T17:02:02;17.90;50.40
67870;DHT22;54673;52.262;6.830;2022-12-07T17:04:29;17.90;50.40
67870;DHT22;54673;52.262;6.830;2022-12-07T17:06:55;17.90;50.40
67870;DHT22;54673;52.262;6.830;2022-12-07T17:09:20;17.90;50.10
67870;DHT22;54673;52.262;6.830;2022-12-07T17:11:46;17.90;49.90
67870;DHT22;54673;52.262;6.830;2022-12-07T17:14:12;17.80;49.90
67870;DHT22;54673;52.262;6.830;2022-12-07T17:16:56;17.70;50.00
67870;DHT22;54673;52.262;6.830;2022-12-07T17:19:21;17.60;49.90
67870;DHT22;54673;52.262;6.830;2022-12-07T17:21:47;17.60;49.90
67870;DHT22;54673;52.262;6.830;2022-12-07T17:24:14;17.50;50.00
67870;DHT22;54673;52.262;6.830;2022-12-07T17:26:42;17.50;50.00
67870;DHT22;54673;52.262;6.830;2022-12-07T17:29:10;17.40;50.10
67870;DHT22;54673;52.262;6.830;2022-12-07T17:31:36;17.30;50.10
67870;DHT22;54673;52.262;6.830;2022-12-07T17:34:02;17.30;50.20
67870;DHT22;54673;52.262;6.830;2022-12-07T17:36:30;17.20;50.30
67870;DHT22;54673;52.262;6.830;2022-12-07T17:38:56;17.20;50.30
67870;DHT22;54673;52.262;6.830;2022-12-07T17:41:24;17.10;50.40
67870;DHT22;54673;52.262;6.830;2022-12-07T17:44:13;17.10;50.50
67870;DHT22;54673;52.262;6.830;2022-12-07T17:46:40;17.00;50.60
67870;DHT22;54673;52.262;6.830;2022-12-07T17:49:06;17.00;50.50
67870;DHT22;54673;52.262;6.830;2022-12-07T17:51:32;16.90;50.60
67870;DHT22;54673;52.262;6.830;2022-12-07T17:54:17;16.90;50.60